Historyczne dane pomiarowe

Dodano dane terminowe – wersja testowa.

Dane z okresu 1951-2019

Wersja bazy: 1.34 [2019-03-16, lista zmian], aktualizacja planowana na 2019-04-15

Dane meteo z obszaru Polski uzyskane na podstawie danych udostępnionych przez Instytut Meteorologii i Gospodarki Wodnej – Państwowy Instytut Badawczy.

 

Wybierz Datę:    

       

TemperaturaWilgotnośćWiatrCiśnienieOpadyŚniegCzas trwania zjawisk
 Stacja t tx tn tng RH VA  wxwx mslp ppp RRR   cm mm wxwxwxwxwxwxwx
1961-08-14 15.1 19.4 8.8- 73.5- 2.0 1.7---- 0.0------------
1961-08-13 14.9 17.7 14.2- 77.8- 6.0 4.3---- 0.0------------
1961-08-12 17.7 22.1 16.1- 88.5- 7.0 1.7---- 25.9------------
1961-08-11 19.6 23.3 17.0- 92.0- 8.0 1.3---- 10.5------------
1961-08-10 22.0 26.5 16.4- 71.8- 4.0 4.0---- 19.2------------
1961-08-09 22.8 28.9 14.3- 65.8- 4.3 3.3---- 0.0------------
1961-08-08 18.8 23.9 13.8- 63.8- 3.3 1.0---- 0.0------------
1961-08-07 21.8 27.0 18.3- 72.8- 4.0 2.3---- 0.8------------
1961-08-06 25.1 30.9 13.9- 60.8- 2.0 3.3---- 0.0------------
1961-08-05 18.3 23.1 14.5- 76.5- 4.0 3.7---- 0.0------------
1961-08-04 16.2 20.0 8.7- 67.3- 5.0 2.0---- 0.0------------
1961-08-03 16.6 20.8 14.7- 75.5- 6.0 3.0---- 0.0------------
1961-08-02 19.5 25.7 9.2- 63.0- 0.7 2.0---- 0.0------------
1961-08-01 13.7 16.2 11.9- 89.5- 8.0 6.3---- 0.5------------
1961-07-31 14.2 17.5 12.4- 90.8- 8.0 5.3---- 3.8------------
1961-07-30 13.2 15.5 11.9- 96.5- 8.0 2.7---- 18.4------------
1961-07-29 15.3 19.6 12.7- 86.5- 6.7 1.7---- 0.4------------
1961-07-28 16.7 20.7 15.5- 91.0- 7.3 3.0---- 24.7------------
1961-07-27 20.0 25.6 14.6- 71.0- 7.0 3.7---- 0.2------------
1961-07-26 17.3 21.3 11.9- 71.5- 8.0 4.0---- 0.0------------
1961-07-25 15.0 18.1 8.9- 73.5- 7.3 4.3---- 0.0------------
1961-07-24 15.0 18.9 11.6- 73.3- 7.7 4.3---- 0.0------------
1961-07-23 14.8 17.3 11.8- 84.5- 7.3 4.7---- 0.0------------
1961-07-22 15.5 20.5 13.4- 82.8- 7.0 5.3---- 1.2------------
1961-07-21 14.9 19.1 10.8- 89.3- 7.0 5.0---- 5.5------------
1961-07-20 17.0 22.7 7.5- 71.5- 3.3 1.7---- 0.0------------
1961-07-19 15.0 20.5 10.7- 82.3- 4.7 2.7---- 1.0------------
1961-07-18 14.3 18.9 10.2- 88.8- 7.3 2.7---- 0.1------------
1961-07-17 16.9 22.7 9.8- 76.5- 6.0 3.0---- 1.2------------
1961-07-16 14.6 17.8 10.4- 93.5- 5.3 2.3---- 7.7------------
1961-07-15 17.3 22.0 9.7- 70.5- 5.0 3.0---- 0.1------------
1961-07-14 15.6 20.3 14.1- 67.0- 7.0 4.7---- 0.0------------
1961-07-13 21.9 29.9 14.0- 81.5- 5.7 7.7---- 1.2------------
1961-07-12 19.0 25.9 11.0- 80.5- 4.3 2.7---- 0.0------------
1961-07-11 16.5 21.3 10.1- 61.5- 3.0 4.3---- 3.7------------
1961-07-10 14.2 19.3 10.1- 72.5- 5.7 5.0---- 0.9------------
1961-07-09 16.5 23.8 9.3- 70.3- 4.7 4.7---- 0.0------------
1961-07-08 15.9 21.7 10.4- 60.5- 4.0 2.7---- 0.0------------
1961-07-07 14.0 17.7 9.5- 64.8- 7.7 4.0---- 0.1------------
1961-07-06 13.1 17.4 8.1- 77.0- 4.0 5.0---- 0.1------------
1961-07-05 14.5 18.3 13.0- 62.3- 5.7 5.7---- 0.0------------
1961-07-04 19.5 24.5 17.6- 78.8- 6.3 3.3---- 3.9------------
1961-07-03 25.0 31.6 13.7- 47.5- 0.3 1.7---- 0.0------------
1961-07-02 24.3 29.9 12.1- 46.5- 0.0 2.7---- 0.0------------
1961-07-01 20.3 25.7 11.2- 61.8- 0.7 1.7---- 0.0------------
1961-06-30 20.4 25.7 10.2- 61.0- 0.7 2.0---- 0.0------------
1961-06-29 15.4 19.3 10.3- 75.0- 5.0 3.0---- 0.0------------
1961-06-28 15.4 20.6 13.1- 70.0- 5.0 4.7---- 5.3------------
1961-06-27 23.0 33.7 15.4- 71.0- 3.7 4.0---- 12.5------------
1961-06-26 23.3 29.1 15.6- 61.3- 2.0 1.3---- 0.0------------
1961-06-25 22.2 27.8 14.1- 58.0- 2.7 4.3---- 0.0------------
1961-06-24 18.3 23.0 12.5- 60.5- 4.3 5.3---- 0.0------------
1961-06-23 16.7 24.3 13.9- 78.3- 5.0 2.7---- 21.2------------
1961-06-22 16.5 22.1 9.6- 57.8- 3.3 1.3---- 11.0------------
1961-06-21 16.0 23.1 5.7- 77.3- 3.3 4.0---- 3.7------------
1961-06-20 16.2 20.1 9.5- 52.3- 1.3 3.7---- 0.0------------
1961-06-19 16.9 22.7 14.7- 69.3- 5.3 3.0---- 0.0------------
1961-06-18 20.9 26.7 14.4- 59.0- 4.3 3.7---- 0.2------------
1961-06-17 18.0 25.1 8.7- 64.8- 5.3 4.0---- 0.0------------
1961-06-16 12.8 16.4 10.5- 85.3- 5.7 4.3---- 0.1------------
499.2 ms

 

Źródłem pochodzenia danych jest Instytut Meteorologii i Gospodarki Wodnej – Państwowy Instytut Badawczy. Dane Instytutu Meteorologii i Gospodarki Wodnej – Państwowego Instytutu Badawczego zostały przetworzone.

Dane źródłowe można odnaleźć na stronie https://dane.imgw.pl